Time;durP1;ratioP1;P1;durP2;ratioP2;P2;SDS_P1;SDS_P2;PMS_P1;PMS_P2;Temp;Humidity;BMP_temperature;BMP_pressure;BME280_temperature;BME280_humidity;BME280_pressure;Samples;Min_cycle;Max_cycle;Signal;HPM_P1;HPM_P2
2022/09/15 00:00:15;;;;;;;16.43;2.67;;;17.50;99.90;;;;;;5033911;28;20428;-73
2022/09/15 00:02:41;;;;;;;4.07;2.40;;;17.50;99.90;;;;;;5033712;28;20281;-73
2022/09/15 00:05:06;;;;;;;2.40;2.20;;;17.50;99.90;;;;;;5033699;28;21048;-73
2022/09/15 00:07:32;;;;;;;2.93;2.53;;;17.50;99.90;;;;;;5033540;28;20212;-73
2022/09/15 00:09:58;;;;;;;9.00;3.03;;;17.50;99.90;;;;;;5033923;28;20249;-73
2022/09/15 00:12:24;;;;;;;7.37;2.20;;;17.50;99.90;;;;;;5033680;28;20194;-71
2022/09/15 00:14:49;;;;;;;5.30;2.53;;;17.50;99.90;;;;;;5033413;28;20182;-70
2022/09/15 00:17:14;;;;;;;2.83;2.60;;;17.50;99.90;;;;;;5033469;28;20184;-74
2022/09/15 00:19:40;;;;;;;3.83;2.90;;;17.50;99.90;;;;;;5033452;28;20532;-73
2022/09/15 00:22:06;;;;;;;3.13;2.23;;;17.50;99.90;;;;;;5033549;28;20320;-73
2022/09/15 00:24:31;;;;;;;3.60;2.73;;;17.40;99.90;;;;;;5033511;28;20178;-73
2022/09/15 00:26:57;;;;;;;4.83;2.97;;;17.40;99.90;;;;;;5033138;28;20260;-73
2022/09/15 00:29:22;;;;;;;2.97;2.17;;;17.40;99.90;;;;;;5034103;28;20210;-73
2022/09/15 00:31:48;;;;;;;4.40;2.47;;;17.40;99.90;;;;;;5033422;28;20214;-73
2022/09/15 00:34:13;;;;;;;2.60;2.40;;;17.40;99.90;;;;;;5033884;28;20209;-73
2022/09/15 00:36:39;;;;;;;3.33;3.03;;;17.40;99.90;;;;;;5033338;28;20197;-73
2022/09/15 00:39:05;;;;;;;3.00;2.70;;;17.40;99.90;;;;;;5033346;28;20200;-73
2022/09/15 00:41:30;;;;;;;3.10;2.33;;;17.40;99.90;;;;;;5033027;28;20523;-72
2022/09/15 00:43:56;;;;;;;2.50;2.30;;;17.40;99.90;;;;;;5033251;28;20182;-72
2022/09/15 00:46:28;;;;;;;3.33;2.53;;;17.40;99.90;;;;;;5033033;28;20257;-73
2022/09/15 00:49:13;;;;;;;4.20;2.67;;;17.40;99.90;;;;;;5032915;28;20202;-72
2022/09/15 00:51:55;;;;;;;3.73;2.60;;;17.40;99.90;;;;;;5032957;28;20432;-72
2022/09/15 00:54:31;;;;;;;4.00;2.87;;;17.40;99.90;;;;;;5033225;28;20416;-72
2022/09/15 00:57:00;;;;;;;2.60;2.40;;;17.40;99.90;;;;;;5033184;28;20417;-72
2022/09/15 00:59:28;;;;;;;4.83;1.73;;;17.40;99.90;;;;;;5032873;28;20420;-73
2022/09/15 02:32:35;;;;;;;3.13;1.50;;;17.60;99.90;;;;;;5255563;22;20496;-72
2022/09/15 02:35:05;;;;;;;2.70;1.17;;;17.60;99.90;;;;;;5025740;28;20409;-73
2022/09/15 02:37:33;;;;;;;1.93;1.53;;;17.60;99.90;;;;;;5031204;28;20409;-72
2022/09/15 02:40:00;;;;;;;1.67;1.20;;;17.60;99.90;;;;;;5031252;28;20959;-72
2022/09/15 02:42:28;;;;;;;2.27;1.10;;;17.60;99.90;;;;;;5033976;28;20477;-73
2022/09/15 02:44:54;;;;;;;2.17;1.23;;;17.60;99.90;;;;;;5035207;28;20407;-71
2022/09/15 02:47:19;;;;;;;2.03;1.00;;;17.60;99.90;;;;;;5035023;28;20459;-71
2022/09/15 02:49:45;;;;;;;1.67;1.10;;;17.60;99.90;;;;;;5035480;28;20416;-72
2022/09/15 02:52:10;;;;;;;4.40;1.30;;;17.60;99.90;;;;;;5035045;28;20619;-72
2022/09/15 02:54:36;;;;;;;1.77;1.50;;;17.60;99.90;;;;;;5035335;28;20177;-72
2022/09/15 02:57:02;;;;;;;1.73;1.33;;;17.60;99.90;;;;;;5035313;28;20201;-72
2022/09/15 03:00:11;;;;;;;3.20;1.13;;;17.70;99.90;;;;;;5035289;28;20260;-73
2022/09/15 03:02:13;;;;;;;3.03;1.40;;;17.70;99.90;;;;;;5035115;28;20225;-72
2022/09/15 03:04:38;;;;;;;1.97;1.00;;;17.60;99.90;;;;;;5035759;28;20436;-72
2022/09/15 03:07:04;;;;;;;1.27;1.17;;;17.60;99.90;;;;;;5035059;28;20174;-72
2022/09/15 03:09:30;;;;;;;2.80;1.07;;;17.60;99.90;;;;;;5035594;28;20178;-72
2022/09/15 03:11:55;;;;;;;3.10;0.80;;;17.60;99.90;;;;;;5035016;28;20658;-72
2022/09/15 03:14:21;;;;;;;2.00;0.83;;;17.60;99.90;;;;;;5035412;28;20174;-74
2022/09/15 03:16:46;;;;;;;0.93;0.80;;;17.50;99.90;;;;;;5034950;28;20514;-71
2022/09/15 03:19:12;;;;;;;0.80;0.80;;;17.50;99.90;;;;;;5035187;28;20174;-73
2022/09/15 03:21:37;;;;;;;3.17;1.13;;;17.50;99.90;;;;;;5034979;28;20224;-73
2022/09/15 03:24:03;;;;;;;1.83;0.87;;;17.50;99.90;;;;;;5034787;28;20202;-73
2022/09/15 03:26:29;;;;;;;2.40;0.70;;;17.50;99.90;;;;;;5034842;28;20170;-72
2022/09/15 03:28:55;;;;;;;2.03;1.20;;;17.50;99.90;;;;;;5034660;28;20197;-73
2022/09/15 03:31:20;;;;;;;3.20;1.07;;;17.40;99.90;;;;;;5034916;28;20789;-73
2022/09/15 03:33:47;;;;;;;2.60;1.30;;;17.40;99.90;;;;;;5034818;28;20257;-73
2022/09/15 03:36:12;;;;;;;4.77;1.00;;;17.40;99.90;;;;;;5034437;28;20556;-73
2022/09/15 03:38:38;;;;;;;2.60;1.20;;;17.40;99.90;;;;;;5034724;28;20409;-73
2022/09/15 03:41:06;;;;;;;1.37;1.13;;;17.40;99.90;;;;;;5034263;28;20197;-72
2022/09/15 03:43:33;;;;;;;2.10;1.07;;;17.40;99.90;;;;;;5034675;28;20170;-73
2022/09/15 03:45:59;;;;;;;3.87;1.33;;;17.40;99.90;;;;;;5034193;28;20828;-72
2022/09/15 03:48:26;;;;;;;0.80;0.80;;;17.40;99.90;;;;;;5034478;28;20556;-72
2022/09/15 03:50:52;;;;;;;2.83;1.03;;;17.50;99.90;;;;;;5034356;28;20412;-73
2022/09/15 03:53:18;;;;;;;1.20;1.10;;;17.40;99.90;;;;;;5033750;28;20401;-74
2022/09/15 03:55:44;;;;;;;1.73;0.90;;;17.40;99.90;;;;;;5034173;28;20174;-73
2022/09/15 03:58:11;;;;;;;3.10;1.10;;;17.40;99.90;;;;;;5034188;28;20424;-73
2022/09/15 04:00:37;;;;;;;2.80;1.13;;;17.40;99.90;;;;;;5033953;28;20952;-72
2022/09/15 04:03:03;;;;;;;6.67;1.20;;;17.40;99.90;;;;;;5034118;28;20425;-73
2022/09/15 04:05:29;;;;;;;2.20;0.83;;;17.40;99.90;;;;;;5034025;28;20705;-72
2022/09/15 04:07:54;;;;;;;2.67;1.27;;;17.40;99.90;;;;;;5033981;28;20514;-73
2022/09/15 04:10:23;;;;;;;1.07;1.07;;;17.40;99.90;;;;;;5033852;28;20320;-73
2022/09/15 04:12:50;;;;;;;1.47;1.37;;;17.40;99.90;;;;;;5033946;28;20281;-74
2022/09/15 04:15:15;;;;;;;2.80;1.30;;;17.40;99.90;;;;;;5033768;28;20409;-74
2022/09/15 04:17:41;;;;;;;2.13;1.30;;;17.40;99.90;;;;;;5034256;28;20417;-73
2022/09/15 04:20:07;;;;;;;0.90;0.90;;;17.40;99.90;;;;;;5033888;28;20749;-73
2022/09/15 04:22:33;;;;;;;3.27;1.10;;;17.40;99.90;;;;;;5033852;28;20206;-73
2022/09/15 04:24:58;;;;;;;1.30;1.20;;;17.40;99.90;;;;;;5033854;28;20421;-73
2022/09/15 04:27:24;;;;;;;2.33;0.93;;;17.30;99.90;;;;;;5033605;28;20213;-73
2022/09/15 04:29:51;;;;;;;2.70;0.90;;;17.40;99.90;;;;;;5033821;28;20579;-73
2022/09/15 04:32:17;;;;;;;2.30;1.00;;;17.40;99.90;;;;;;5033276;28;20210;-73
2022/09/15 04:34:43;;;;;;;2.50;1.10;;;17.40;99.90;;;;;;5033621;28;20761;-73
2022/09/15 04:37:09;;;;;;;1.77;1.43;;;17.40;99.90;;;;;;5033526;28;20467;-72
2022/09/15 04:39:35;;;;;;;4.20;1.80;;;17.50;99.90;;;;;;5033481;28;20224;-73
2022/09/15 04:42:04;;;;;;;4.73;1.03;;;17.40;99.90;;;;;;5033117;28;20428;-73
2022/09/15 04:44:29;;;;;;;5.20;1.00;;;17.50;99.90;;;;;;5033456;28;20243;-71
2022/09/15 04:46:55;;;;;;;1.90;1.10;;;17.50;99.90;;;;;;5033119;28;20907;-73
2022/09/15 04:49:20;;;;;;;1.33;1.00;;;17.50;99.90;;;;;;5033434;28;20712;-71
2022/09/15 04:51:46;;;;;;;1.13;1.13;;;17.50;99.90;;;;;;5033209;28;20700;-71
2022/09/15 04:54:11;;;;;;;1.50;1.33;;;17.50;99.90;;;;;;5033165;28;20174;-70
2022/09/15 04:56:38;;;;;;;2.40;1.00;;;17.50;99.90;;;;;;5032928;28;20178;-72
2022/09/15 04:59:03;;;;;;;4.70;1.40;;;17.50;99.90;;;;;;5032950;28;20181;-72
2022/09/15 05:01:31;;;;;;;2.10;1.20;;;17.50;99.90;;;;;;5032937;28;20432;-73
2022/09/15 05:03:57;;;;;;;3.90;1.73;;;17.50;99.90;;;;;;5032127;28;20736;-73
2022/09/15 05:06:25;;;;;;;5.87;1.20;;;17.50;99.90;;;;;;5032688;28;20939;-73
2022/09/15 05:08:53;;;;;;;2.77;1.13;;;17.50;99.90;;;;;;5032768;28;20488;-73
2022/09/15 05:11:20;;;;;;;1.43;1.13;;;17.50;99.90;;;;;;5032734;28;20429;-73
2022/09/15 05:13:46;;;;;;;4.80;1.10;;;17.40;99.90;;;;;;5032659;28;20410;-73
2022/09/15 05:16:14;;;;;;;1.23;1.13;;;17.40;99.90;;;;;;5032333;28;20409;-73
2022/09/15 05:18:41;;;;;;;1.13;1.13;;;17.50;99.90;;;;;;5032646;28;20198;-73
2022/09/15 05:21:08;;;;;;;1.23;0.97;;;17.50;99.90;;;;;;5032354;28;20516;-72
2022/09/15 05:23:34;;;;;;;3.70;1.30;;;17.50;99.90;;;;;;5032441;28;20425;-73
2022/09/15 05:26:03;;;;;;;1.33;1.20;;;17.60;99.90;;;;;;5032305;28;20440;-73
2022/09/15 05:28:32;;;;;;;2.37;1.20;;;17.50;99.90;;;;;;5032419;28;20456;-73
2022/09/15 05:30:57;;;;;;;4.47;1.23;;;17.50;99.90;;;;;;5032061;28;20483;-73
2022/09/15 05:33:23;;;;;;;2.20;1.30;;;17.50;99.90;;;;;;5032512;28;20448;-73
2022/09/15 05:35:56;;;;;;;1.10;1.00;;;17.50;99.90;;;;;;5032145;28;20548;-73
2022/09/15 05:38:23;;;;;;;2.20;1.20;;;17.40;99.90;;;;;;5032316;28;20209;-73
2022/09/15 05:40:48;;;;;;;3.23;0.80;;;17.40;99.90;;;;;;5032111;28;20422;-73
2022/09/15 05:43:15;;;;;;;1.23;1.13;;;17.50;99.90;;;;;;5032106;28;20405;-73
2022/09/15 05:45:41;;;;;;;2.00;0.87;;;17.50;99.90;;;;;;5032220;28;20784;-73
2022/09/15 05:48:10;;;;;;;1.30;1.20;;;17.50;99.90;;;;;;5032138;28;20550;-73
2022/09/15 05:50:37;;;;;;;3.10;0.93;;;17.50;99.90;;;;;;5032430;28;20774;-73
2022/09/15 05:53:03;;;;;;;3.33;1.40;;;17.50;99.90;;;;;;5031950;28;20408;-74
2022/09/15 05:55:29;;;;;;;1.63;1.07;;;17.40;99.90;;;;;;5032148;28;20444;-74
2022/09/15 05:57:55;;;;;;;0.90;0.90;;;17.40;99.90;;;;;;5032311;28;20498;-74
2022/09/15 06:00:20;;;;;;;7.23;1.50;;;17.40;99.90;;;;;;5032159;28;20544;-73
2022/09/15 06:02:46;;;;;;;3.17;1.00;;;17.50;99.90;;;;;;5032149;28;20205;-74
2022/09/15 06:05:11;;;;;;;1.30;1.20;;;17.50;99.90;;;;;;5031736;28;20607;-73
2022/09/15 06:07:37;;;;;;;1.33;1.23;;;17.50;99.90;;;;;;5031863;28;20237;-73
2022/09/15 06:10:03;;;;;;;2.20;0.90;;;17.60;99.90;;;;;;5031682;28;20170;-73
2022/09/15 06:12:29;;;;;;;2.30;1.07;;;17.60;99.90;;;;;;5031977;28;20440;-73
2022/09/15 06:14:55;;;;;;;2.50;1.00;;;17.60;99.90;;;;;;5031583;28;20642;-74
2022/09/15 06:17:22;;;;;;;1.17;1.07;;;17.60;99.90;;;;;;5031468;28;20180;-74
2022/09/15 06:19:47;;;;;;;2.27;1.10;;;17.70;99.90;;;;;;5031758;28;20405;-73
2022/09/15 06:22:13;;;;;;;3.37;1.10;;;17.80;99.90;;;;;;5031353;28;20582;-73
2022/09/15 06:24:38;;;;;;;1.33;0.90;;;17.80;99.90;;;;;;5031737;28;20174;-73
2022/09/15 06:27:04;;;;;;;1.97;0.80;;;17.80;99.90;;;;;;5031217;28;20182;-73
2022/09/15 06:29:31;;;;;;;0.80;0.80;;;17.70;99.90;;;;;;5031549;28;20174;-73
2022/09/15 06:32:01;;;;;;;2.43;1.00;;;17.60;99.90;;;;;;5030942;28;20256;-73
2022/09/15 06:34:31;;;;;;;1.90;0.80;;;17.60;99.90;;;;;;5031594;28;20401;-73
2022/09/15 06:36:58;;;;;;;1.77;0.90;;;17.60;99.90;;;;;;5031093;28;20413;-73
2022/09/15 06:39:24;;;;;;;2.67;1.23;;;17.60;99.90;;;;;;5031477;28;20420;-73
2022/09/15 06:41:49;;;;;;;1.47;1.37;;;17.50;99.90;;;;;;5030966;28;20440;-73
2022/09/15 06:44:15;;;;;;;8.83;1.73;;;17.50;99.90;;;;;;5031296;28;20201;-74
2022/09/15 06:46:40;;;;;;;3.03;1.40;;;17.50;99.90;;;;;;5031028;28;20174;-74
2022/09/15 06:49:06;;;;;;;6.67;1.27;;;17.40;99.90;;;;;;5031107;28;20640;-74
2022/09/15 06:51:34;;;;;;;5.23;1.10;;;17.30;99.90;;;;;;5031343;28;20186;-74
2022/09/15 06:54:01;;;;;;;1.40;1.30;;;17.20;99.90;;;;;;5031716;28;20932;-74
2022/09/15 06:56:28;;;;;;;1.60;1.10;;;17.20;99.90;;;;;;5031448;28;20491;-74
2022/09/15 06:58:54;;;;;;;3.17;1.20;;;17.10;99.90;;;;;;5031225;28;20434;-74
2022/09/15 07:01:22;;;;;;;1.90;1.23;;;17.10;99.90;;;;;;5031091;28;20443;-74
2022/09/15 07:03:48;;;;;;;2.00;1.30;;;17.10;99.90;;;;;;5031050;28;20416;-74
2022/09/15 07:06:14;;;;;;;1.27;1.13;;;17.10;99.90;;;;;;5030874;28;20503;-74
2022/09/15 07:08:40;;;;;;;2.07;1.87;;;17.00;99.90;;;;;;5031078;28;20233;-73
2022/09/15 07:11:07;;;;;;;3.53;1.20;;;17.00;99.90;;;;;;5030785;28;20190;-74
2022/09/15 07:13:32;;;;;;;1.10;0.90;;;17.00;99.90;;;;;;5031555;28;20438;-75
2022/09/15 07:16:00;;;;;;;2.70;0.80;;;17.00;99.90;;;;;;5031143;28;20499;-74
2022/09/15 07:18:26;;;;;;;4.37;1.20;;;17.00;99.90;;;;;;5031213;28;20706;-75
2022/09/15 07:20:58;;;;;;;1.93;1.10;;;17.00;99.90;;;;;;5031360;28;20416;-74
2022/09/15 07:23:23;;;;;;;3.30;0.90;;;17.00;99.90;;;;;;5031077;28;20409;-75
2022/09/15 07:25:49;;;;;;;1.43;1.10;;;16.90;99.90;;;;;;5030976;28;20467;-74
2022/09/15 07:28:14;;;;;;;3.17;1.00;;;16.90;99.90;;;;;;5033250;28;20288;-74
2022/09/15 07:30:41;;;;;;;4.13;1.23;;;17.00;99.90;;;;;;5034888;28;20178;-73
2022/09/15 07:33:08;;;;;;;2.83;0.93;;;17.00;99.90;;;;;;5034608;28;20643;-74
2022/09/15 07:35:34;;;;;;;1.10;1.00;;;17.10;99.90;;;;;;5034569;28;20408;-73
2022/09/15 07:37:59;;;;;;;1.20;1.10;;;17.10;99.90;;;;;;5034483;28;20431;-74
2022/09/15 07:40:26;;;;;;;4.43;1.17;;;17.20;99.90;;;;;;5034609;28;20560;-75
2022/09/15 07:42:51;;;;;;;2.60;1.10;;;17.20;99.90;;;;;;5034277;28;20205;-74
2022/09/15 07:45:17;;;;;;;1.77;1.13;;;17.30;99.90;;;;;;5034712;28;20409;-74
2022/09/15 07:47:42;;;;;;;6.50;1.10;;;17.30;99.90;;;;;;5034328;28;20204;-74
2022/09/15 07:50:08;;;;;;;2.63;0.80;;;17.30;99.90;;;;;;5034268;28;20177;-74
2022/09/15 07:52:34;;;;;;;1.60;0.90;;;17.30;99.90;;;;;;5034409;28;20316;-74
2022/09/15 07:54:59;;;;;;;4.53;1.00;;;17.30;99.90;;;;;;5034147;28;20515;-74
2022/09/15 07:57:26;;;;;;;5.23;1.27;;;17.30;99.90;;;;;;5034141;28;20178;-74
2022/09/15 07:59:51;;;;;;;1.63;1.20;;;17.40;99.90;;;;;;5034205;28;20257;-74
2022/09/15 08:02:19;;;;;;;1.60;0.80;;;17.40;99.90;;;;;;5034227;28;20532;-74
2022/09/15 08:04:44;;;;;;;2.93;0.70;;;17.40;99.90;;;;;;5034157;28;20261;-74
2022/09/15 08:07:11;;;;;;;0.80;0.60;;;17.50;99.90;;;;;;5033799;28;20515;-74
2022/09/15 08:09:37;;;;;;;1.20;0.67;;;17.40;99.90;;;;;;5034238;28;20212;-74
2022/09/15 08:12:04;;;;;;;1.07;0.97;;;17.40;99.90;;;;;;5033930;28;20437;-74
2022/09/15 08:14:32;;;;;;;1.53;0.60;;;17.50;99.90;;;;;;5034150;28;20784;-74
2022/09/15 08:17:00;;;;;;;4.90;1.07;;;17.50;99.90;;;;;;5033652;28;20416;-74
2022/09/15 08:19:30;;;;;;;1.23;0.67;;;17.50;99.90;;;;;;5034092;28;20413;-74
2022/09/15 08:21:55;;;;;;;0.80;0.70;;;17.50;99.90;;;;;;5033519;28;20528;-74
2022/09/15 08:24:21;;;;;;;0.70;0.60;;;17.50;99.90;;;;;;5033923;28;20528;-74
2022/09/15 08:26:47;;;;;;;1.60;0.67;;;17.50;99.90;;;;;;5033610;28;20698;-74
2022/09/15 08:29:13;;;;;;;1.33;0.60;;;17.50;99.90;;;;;;5033625;28;20573;-73
2022/09/15 08:31:38;;;;;;;0.70;0.60;;;17.40;99.90;;;;;;5033528;28;20457;-74
2022/09/15 08:34:05;;;;;;;4.83;0.63;;;17.50;99.90;;;;;;5033688;28;20650;-74
2022/09/15 08:36:32;;;;;;;3.37;0.70;;;17.60;99.90;;;;;;5033458;28;20667;-74
2022/09/15 08:38:58;;;;;;;1.50;0.70;;;17.60;99.90;;;;;;5033445;28;20895;-74
2022/09/15 08:41:32;;;;;;;4.20;0.93;;;17.70;99.90;;;;;;5033456;28;20441;-74
2022/09/15 08:44:34;;;;;;;0.90;0.80;;;17.70;99.90;;;;;;5033457;28;20413;-73
2022/09/15 08:47:22;;;;;;;0.60;0.60;;;17.80;99.90;;;;;;5032972;28;20440;-74
2022/09/15 08:49:57;;;;;;;1.80;0.63;;;17.90;99.90;;;;;;5033483;28;20441;-74
2022/09/15 08:52:36;;;;;;;0.73;0.70;;;18.00;99.90;;;;;;5033302;28;20928;-74
2022/09/15 08:55:17;;;;;;;2.70;1.00;;;18.10;99.90;;;;;;5033337;28;20405;-74
2022/09/15 08:57:43;;;;;;;1.23;0.60;;;18.30;99.90;;;;;;5033154;28;20808;-74
2022/09/15 09:00:14;;;;;;;0.60;0.60;;;18.30;99.90;;;;;;5033222;28;20902;-74
2022/09/15 09:03:12;;;;;;;5.53;0.60;;;18.40;99.90;;;;;;5033050;28;20429;-74
2022/09/15 09:06:13;;;;;;;0.90;0.73;;;18.50;99.90;;;;;;5032870;28;20417;-74
2022/09/15 09:09:01;;;;;;;4.20;0.90;;;18.60;99.90;;;;;;5033096;28;20846;-74
2022/09/15 09:11:49;;;;;;;0.70;0.60;;;18.60;99.90;;;;;;5032893;28;20452;-74
2022/09/15 09:14:30;;;;;;;1.90;0.60;;;18.60;99.90;;;;;;5032836;28;20774;-73
2022/09/15 09:17:15;;;;;;;0.93;0.90;;;18.50;99.90;;;;;;5033179;28;20444;-74
2022/09/15 09:20:00;;;;;;;1.53;0.63;;;18.50;99.90;;;;;;5032760;28;20771;-74
2022/09/15 09:22:30;;;;;;;3.27;0.57;;;18.40;99.90;;;;;;5032791;28;20491;-74
2022/09/15 09:24:58;;;;;;;1.83;0.40;;;18.20;99.90;;;;;;5032744;28;20417;-73
2022/09/15 09:27:28;;;;;;;0.50;0.40;;;18.10;99.90;;;;;;5032528;28;20504;-73
2022/09/15 09:30:06;;;;;;;1.00;0.40;;;18.10;99.90;;;;;;5032592;28;20409;-74
2022/09/15 09:32:56;;;;;;;0.73;0.50;;;17.90;99.90;;;;;;5032385;28;20459;-74
2022/09/15 09:35:33;;;;;;;0.60;0.50;;;17.80;99.90;;;;;;5032906;28;20486;-74
2022/09/15 09:38:01;;;;;;;0.50;0.47;;;17.50;99.90;;;;;;5032714;28;20499;-74
2022/09/15 09:40:29;;;;;;;1.43;0.40;;;17.40;99.90;;;;;;5033213;28;20404;-74
2022/09/15 09:42:55;;;;;;;1.30;0.73;;;17.40;99.90;;;;;;5032608;28;20440;-74
2022/09/15 09:45:21;;;;;;;3.63;0.50;;;17.40;99.90;;;;;;5031138;28;20788;-74
2022/09/15 09:47:47;;;;;;;3.13;0.60;;;17.30;99.90;;;;;;5031917;28;20197;-74
2022/09/15 09:50:37;;;;;;;1.77;0.57;;;17.30;99.90;;;;;;5031787;28;20422;-74
2022/09/15 09:53:25;;;;;;;2.90;0.60;;;17.30;99.90;;;;;;5031924;28;20196;-74
2022/09/15 09:55:53;;;;;;;2.30;0.80;;;17.20;99.90;;;;;;5027953;28;20503;-74
2022/09/15 09:58:21;;;;;;;0.40;0.40;;;17.10;99.90;;;;;;5031981;28;20931;-74
2022/09/15 10:00:47;;;;;;;1.00;0.40;;;17.00;99.90;;;;;;5031650;28;20416;-74
2022/09/15 10:03:24;;;;;;;0.40;0.40;;;16.90;99.90;;;;;;5031564;28;20401;-74
2022/09/15 10:06:05;;;;;;;0.53;0.47;;;16.80;99.90;;;;;;5031558;28;20843;-72
2022/09/15 10:08:31;;;;;;;0.90;0.50;;;16.80;99.90;;;;;;5031666;28;20459;-75
2022/09/15 10:11:04;;;;;;;0.40;0.40;;;16.80;99.90;;;;;;5031520;28;20527;-74
2022/09/15 10:13:31;;;;;;;1.00;0.50;;;16.80;99.90;;;;;;5031719;28;20412;-75
2022/09/15 10:15:59;;;;;;;0.50;0.50;;;16.70;99.90;;;;;;5031155;28;20916;-74
2022/09/15 10:18:37;;;;;;;2.03;0.50;;;16.70;99.90;;;;;;5031591;28;20440;-74
2022/09/15 10:21:06;;;;;;;0.97;0.50;;;16.60;99.90;;;;;;5031122;28;20957;-74
2022/09/15 10:23:33;;;;;;;0.73;0.50;;;16.50;99.90;;;;;;5031590;28;20803;-74
2022/09/15 10:26:22;;;;;;;0.93;0.57;;;16.50;99.90;;;;;;5031217;28;20416;-74
2022/09/15 10:29:12;;;;;;;1.33;0.77;;;16.50;99.90;;;;;;5031577;28;20471;-74
2022/09/15 10:31:38;;;;;;;1.03;1.00;;;16.40;99.90;;;;;;5031426;28;20447;-74
2022/09/15 10:34:29;;;;;;;1.43;1.33;;;16.20;99.90;;;;;;5031442;28;20417;-74
2022/09/15 10:37:10;;;;;;;1.20;0.93;;;16.10;99.90;;;;;;5031391;28;20409;-75
2022/09/15 10:39:38;;;;;;;3.77;1.40;;;16.00;99.90;;;;;;5031612;28;20412;-74
2022/09/15 10:42:42;;;;;;;1.73;1.40;;;15.90;99.90;;;;;;5031908;28;20464;-74
2022/09/15 10:45:43;;;;;;;1.50;1.40;;;15.90;99.90;;;;;;5031988;28;20411;-74
2022/09/15 10:48:31;;;;;;;2.20;1.43;;;15.90;99.90;;;;;;5031330;28;20459;-75
2022/09/15 10:50:57;;;;;;;1.60;1.50;;;15.80;99.90;;;;;;5031479;28;20432;-74
2022/09/15 10:53:36;;;;;;;2.57;2.37;;;15.60;99.90;;;;;;5031716;28;20482;-74
2022/09/15 10:56:19;;;;;;;3.37;2.10;;;15.50;99.90;;;;;;5031524;28;20668;-74
2022/09/15 10:59:02;;;;;;;3.50;2.40;;;15.50;99.90;;;;;;5031358;28;20413;-74
2022/09/15 11:01:27;;;;;;;1.73;1.63;;;15.40;99.90;;;;;;5031347;28;20456;-74
2022/09/15 11:04:17;;;;;;;3.13;2.50;;;15.40;99.90;;;;;;5034727;28;20470;-74
2022/09/15 11:06:50;;;;;;;3.07;2.83;;;15.30;99.90;;;;;;5035019;28;20563;-74
2022/09/15 11:09:33;;;;;;;3.80;2.90;;;15.30;99.90;;;;;;5034746;28;20467;-74
2022/09/15 11:12:12;;;;;;;4.70;3.13;;;15.20;99.90;;;;;;5034815;28;20424;-75
2022/09/15 11:14:55;;;;;;;7.97;3.70;;;15.20;99.90;;;;;;5035134;28;20424;-74
2022/09/15 11:17:36;;;;;;;6.73;3.53;;;15.20;99.90;;;;;;5034596;28;20413;-75
2022/09/15 11:20:14;;;;;;;4.97;3.33;;;15.30;99.90;;;;;;5035019;28;20785;-75
2022/09/15 11:22:58;;;;;;;4.03;2.87;;;15.50;99.90;;;;;;5034798;28;20431;-75
2022/09/15 11:25:34;;;;;;;6.33;2.77;;;15.60;99.90;;;;;;5035174;28;20456;-74
2022/09/15 11:28:25;;;;;;;6.23;3.80;;;15.60;99.90;;;;;;5034861;28;20475;-74
2022/09/15 11:31:19;;;;;;;5.27;2.90;;;15.80;99.90;;;;;;5034708;28;20877;-75
2022/09/15 11:33:57;;;;;;;4.50;2.43;;;15.80;99.90;;;;;;5034769;28;20443;-74
2022/09/15 11:36:29;;;;;;;5.50;2.40;;;15.70;99.90;;;;;;5034564;28;20447;-74
2022/09/15 11:39:04;;;;;;;3.10;2.90;;;15.70;99.90;;;;;;5034594;28;20512;-75
2022/09/15 11:41:40;;;;;;;5.40;3.20;;;15.70;99.90;;;;;;5034457;28;20427;-74
2022/09/15 11:44:13;;;;;;;2.90;2.50;;;15.60;99.90;;;;;;5034128;28;20404;-75
2022/09/15 11:47:00;;;;;;;3.63;3.33;;;15.60;99.90;;;;;;5049525;28;20939;-74
2022/09/15 11:49:54;;;;;;;3.33;3.03;;;15.60;99.90;;;;;;5034018;28;20518;-74
2022/09/15 11:52:56;;;;;;;4.20;3.73;;;15.50;99.90;;;;;;5034054;28;20797;-75
2022/09/15 11:55:25;;;;;;;6.23;2.97;;;15.50;99.90;;;;;;5034154;28;20762;-74
2022/09/15 11:58:29;;;;;;;8.30;4.00;;;15.50;99.90;;;;;;5034014;28;20444;-76
2022/09/15 12:01:10;;;;;;;4.83;3.40;;;15.40;99.90;;;;;;5032600;28;20464;-75
2022/09/15 12:04:11;;;;;;;3.80;3.30;;;15.40;99.90;;;;;;5034051;28;20423;-75
2022/09/15 12:06:54;;;;;;;8.80;3.97;;;15.30;99.90;;;;;;5030183;28;20457;-75
2022/09/15 12:09:20;;;;;;;4.70;3.63;;;15.30;99.90;;;;;;5033559;28;20475;-75
2022/09/15 12:11:50;;;;;;;5.17;4.77;;;15.20;99.90;;;;;;5033890;28;20439;-75
2022/09/15 12:14:26;;;;;;;9.60;4.37;;;15.20;99.90;;;;;;5033291;28;20415;-74
2022/09/15 12:16:52;;;;;;;5.63;4.00;;;15.20;99.90;;;;;;5033976;28;20439;-75
2022/09/15 12:19:32;;;;;;;5.93;4.00;;;15.30;99.90;;;;;;5033832;28;20448;-74
2022/09/15 12:22:01;;;;;;;5.17;4.67;;;15.50;99.90;;;;;;5033910;28;20197;-75
2022/09/15 12:24:32;;;;;;;3.60;3.30;;;15.90;99.90;;;;;;5033844;28;20421;-74
2022/09/15 12:27:01;;;;;;;3.80;2.80;;;16.30;99.90;;;;;;5033894;28;20435;-74
2022/09/15 12:29:26;;;;;;;3.47;3.10;;;16.40;99.90;;;;;;5033728;28;21027;-75
2022/09/15 12:32:18;;;;;;;3.57;2.87;;;16.60;99.90;;;;;;5033488;28;20456;-75
2022/09/15 12:35:07;;;;;;;3.80;2.93;;;16.70;99.90;;;;;;5033927;28;20202;-75
2022/09/15 12:37:52;;;;;;;3.17;2.87;;;16.70;99.90;;;;;;5033626;28;20420;-75
2022/09/15 12:40:40;;;;;;;3.73;3.23;;;17.00;99.90;;;;;;5033674;28;20424;-74
2022/09/15 12:43:30;;;;;;;3.53;3.23;;;17.00;99.90;;;;;;5033405;28;20444;-73
2022/09/15 12:45:59;;;;;;;5.63;3.60;;;17.00;99.90;;;;;;5033483;28;20609;-72
2022/09/15 12:48:28;;;;;;;6.93;3.63;;;17.30;99.90;;;;;;5033544;28;20500;-73
2022/09/15 12:51:01;;;;;;;7.70;4.33;;;17.30;99.90;;;;;;5033212;28;20413;-72
2022/09/15 12:53:36;;;;;;;4.93;3.20;;;17.40;99.90;;;;;;5033304;28;20412;-72
2022/09/15 12:56:22;;;;;;;3.30;3.10;;;17.50;99.90;;;;;;5033059;28;20566;-73
2022/09/15 12:58:49;;;;;;;9.10;3.90;;;17.50;99.90;;;;;;5033349;28;20921;-72
2022/09/15 13:01:18;;;;;;;3.67;3.37;;;17.40;99.90;;;;;;5032832;28;20443;-71
2022/09/15 13:03:48;;;;;;;3.50;3.20;;;17.40;99.90;;;;;;5033162;28;20409;-73
2022/09/15 13:06:34;;;;;;;4.90;3.30;;;17.50;99.90;;;;;;5032854;28;20412;-72
2022/09/15 13:09:05;;;;;;;4.40;3.13;;;17.60;99.90;;;;;;5033019;28;20858;-72
2022/09/15 13:11:35;;;;;;;3.17;2.97;;;17.70;99.90;;;;;;5032835;28;20425;-73
2022/09/15 13:14:06;;;;;;;2.97;2.67;;;17.60;99.90;;;;;;5032720;28;20404;-72
2022/09/15 13:16:33;;;;;;;3.50;3.20;;;17.60;99.90;;;;;;5032726;28;20546;-73
2022/09/15 13:19:09;;;;;;;7.10;3.63;;;17.60;99.90;;;;;;5031351;28;20417;-72
2022/09/15 13:21:38;;;;;;;4.10;3.63;;;17.60;99.90;;;;;;5032606;28;20432;-73
2022/09/15 13:24:11;;;;;;;3.90;2.90;;;17.70;99.90;;;;;;5032557;28;20432;-73
2022/09/15 13:26:37;;;;;;;3.30;2.70;;;17.90;99.90;;;;;;5032168;28;20423;-72
2022/09/15 13:29:05;;;;;;;7.47;3.00;;;18.00;99.90;;;;;;5032847;28;20460;-72
2022/09/15 13:31:49;;;;;;;4.50;3.30;;;18.10;99.90;;;;;;5032795;28;20952;-73
2022/09/15 13:34:40;;;;;;;4.93;3.53;;;18.20;99.90;;;;;;5032192;28;20412;-73
2022/09/15 13:37:53;;;;;;;2.80;2.60;;;18.30;99.90;;;;;;5032207;28;20405;-72
2022/09/15 13:40:57;;;;;;;2.90;2.57;;;18.30;99.90;;;;;;5010148;28;20421;-72
2022/09/15 13:43:45;;;;;;;3.93;2.60;;;18.30;99.90;;;;;;5032445;28;20504;-72
2022/09/15 13:46:39;;;;;;;3.53;2.83;;;18.20;99.90;;;;;;5032219;28;20400;-71
2022/09/15 13:49:59;;;;;;;3.27;2.67;;;18.20;99.90;;;;;;5031917;28;20488;-72
2022/09/15 13:52:43;;;;;;;4.73;2.50;;;18.10;99.90;;;;;;5010056;28;20434;-72
2022/09/15 13:55:20;;;;;;;3.07;2.77;;;18.20;99.90;;;;;;5029947;28;20794;-72
2022/09/15 13:57:52;;;;;;;4.13;3.73;;;18.30;99.90;;;;;;5032009;28;20408;-72
2022/09/15 14:00:22;;;;;;;3.47;3.17;;;18.20;99.90;;;;;;5031820;28;20449;-72
2022/09/15 14:02:52;;;;;;;2.87;2.50;;;18.20;99.90;;;;;;5030735;28;20439;-73
2022/09/15 14:05:19;;;;;;;2.80;2.63;;;18.20;99.90;;;;;;5032004;28;20412;-72
2022/09/15 14:08:18;;;;;;;3.10;2.90;;;18.20;99.90;;;;;;5032606;28;20480;-72
2022/09/15 14:10:51;;;;;;;5.37;3.53;;;18.40;99.90;;;;;;5027756;28;20425;-73
2022/09/15 14:13:19;;;;;;;4.37;3.77;;;18.40;99.90;;;;;;5031678;28;20528;-71
2022/09/15 14:16:05;;;;;;;4.10;3.90;;;18.30;99.90;;;;;;5031721;28;20504;-72
2022/09/15 14:18:42;;;;;;;4.27;3.90;;;18.30;99.90;;;;;;5031926;28;20754;-72
2022/09/15 14:21:28;;;;;;;5.20;4.17;;;18.30;99.90;;;;;;5031489;28;20527;-72
2022/09/15 14:23:56;;;;;;;4.17;3.77;;;18.10;99.90;;;;;;5031807;28;20479;-72
2022/09/15 14:26:26;;;;;;;4.13;3.23;;;18.00;99.90;;;;;;5031433;28;20409;-72
2022/09/15 14:29:04;;;;;;;4.67;3.30;;;18.10;99.90;;;;;;5031620;28;20471;-72
2022/09/15 14:31:34;;;;;;;4.40;2.77;;;18.10;99.90;;;;;;5031283;28;20817;-72
2022/09/15 14:34:01;;;;;;;6.97;3.17;;;18.10;99.90;;;;;;5031496;28;20444;-72
2022/09/15 14:36:30;;;;;;;5.17;4.27;;;18.00;99.90;;;;;;5032482;28;20408;-73
2022/09/15 14:39:11;;;;;;;5.53;3.30;;;17.90;99.90;;;;;;5035643;28;20917;-72
2022/09/15 14:41:40;;;;;;;4.43;3.93;;;17.90;99.90;;;;;;5035497;28;20448;-72